sensor_id;sensor_type;location;lat;lon;timestamp;temperature;humidity
23568;DHT22;11962;50.838;4.430;2023-12-20T00:02:15;8.70;99.90
23568;DHT22;11962;50.838;4.430;2023-12-20T00:04:41;8.80;99.90
23568;DHT22;11962;50.838;4.430;2023-12-20T00:07:06;8.70;99.90
23568;DHT22;11962;50.838;4.430;2023-12-20T00:09:32;8.70;99.90
23568;DHT22;11962;50.838;4.430;2023-12-20T00:11:58;8.70;99.90
23568;DHT22;11962;50.838;4.430;2023-12-20T00:14:23;8.70;99.90
23568;DHT22;11962;50.838;4.430;2023-12-20T00:16:49;8.60;99.90
23568;DHT22;11962;50.838;4.430;2023-12-20T00:19:14;8.70;99.90
23568;DHT22;11962;50.838;4.430;2023-12-20T00:21:40;8.70;99.90
23568;DHT22;11962;50.838;4.430;2023-12-20T00:24:06;8.70;99.90
23568;DHT22;11962;50.838;4.430;2023-12-20T00:26:32;8.60;99.90
23568;DHT22;11962;50.838;4.430;2023-12-20T00:28:57;8.50;99.90
23568;DHT22;11962;50.838;4.430;2023-12-20T00:31:23;8.50;99.90
23568;DHT22;11962;50.838;4.430;2023-12-20T00:33:48;8.40;99.90
23568;DHT22;11962;50.838;4.430;2023-12-20T00:36:14;8.40;99.90
23568;DHT22;11962;50.838;4.430;2023-12-20T00:38:39;8.40;99.90
23568;DHT22;11962;50.838;4.430;2023-12-20T00:41:05;8.40;99.90
23568;DHT22;11962;50.838;4.430;2023-12-20T00:43:31;8.40;99.90
23568;DHT22;11962;50.838;4.430;2023-12-20T00:45:56;8.40;99.90
23568;DHT22;11962;50.838;4.430;2023-12-20T00:48:22;8.30;99.90
23568;DHT22;11962;50.838;4.430;2023-12-20T00:50:48;8.20;99.90
23568;DHT22;11962;50.838;4.430;2023-12-20T00:53:13;8.30;99.90
23568;DHT22;11962;50.838;4.430;2023-12-20T00:55:39;8.30;99.90
23568;DHT22;11962;50.838;4.430;2023-12-20T00:58:05;8.20;99.90
23568;DHT22;11962;50.838;4.430;2023-12-20T01:00:31;8.20;99.90
23568;DHT22;11962;50.838;4.430;2023-12-20T01:02:56;8.10;99.90
23568;DHT22;11962;50.838;4.430;2023-12-20T01:05:22;8.00;99.90
23568;DHT22;11962;50.838;4.430;2023-12-20T01:07:48;8.00;99.90
23568;DHT22;11962;50.838;4.430;2023-12-20T01:10:14;7.90;99.90
23568;DHT22;11962;50.838;4.430;2023-12-20T01:12:40;8.00;99.90
23568;DHT22;11962;50.838;4.430;2023-12-20T01:15:05;7.90;99.90
23568;DHT22;11962;50.838;4.430;2023-12-20T01:17:31;7.90;99.90
23568;DHT22;11962;50.838;4.430;2023-12-20T01:19:56;7.90;99.90
23568;DHT22;11962;50.838;4.430;2023-12-20T01:22:23;7.90;99.90
23568;DHT22;11962;50.838;4.430;2023-12-20T01:24:49;7.90;99.90
23568;DHT22;11962;50.838;4.430;2023-12-20T01:27:14;7.80;99.90
23568;DHT22;11962;50.838;4.430;2023-12-20T01:29:40;7.80;99.90
23568;DHT22;11962;50.838;4.430;2023-12-20T01:32:05;7.80;99.90
23568;DHT22;11962;50.838;4.430;2023-12-20T01:34:31;7.80;99.90
23568;DHT22;11962;50.838;4.430;2023-12-20T01:36:57;7.80;99.90
23568;DHT22;11962;50.838;4.430;2023-12-20T01:39:23;7.70;99.90
23568;DHT22;11962;50.838;4.430;2023-12-20T01:41:48;7.70;99.90
23568;DHT22;11962;50.838;4.430;2023-12-20T01:44:14;7.70;99.90
23568;DHT22;11962;50.838;4.430;2023-12-20T01:46:40;7.70;99.90
23568;DHT22;11962;50.838;4.430;2023-12-20T01:49:06;7.70;99.90
23568;DHT22;11962;50.838;4.430;2023-12-20T01:51:32;7.70;99.90
23568;DHT22;11962;50.838;4.430;2023-12-20T01:53:58;7.70;99.90
23568;DHT22;11962;50.838;4.430;2023-12-20T01:56:25;7.60;99.90
23568;DHT22;11962;50.838;4.430;2023-12-20T01:58:51;7.60;99.90
23568;DHT22;11962;50.838;4.430;2023-12-20T02:01:16;7.60;99.90
23568;DHT22;11962;50.838;4.430;2023-12-20T02:03:42;7.60;99.90
23568;DHT22;11962;50.838;4.430;2023-12-20T02:06:08;7.60;99.90
23568;DHT22;11962;50.838;4.430;2023-12-20T02:08:34;7.60;99.90
23568;DHT22;11962;50.838;4.430;2023-12-20T02:11:00;7.60;99.90
23568;DHT22;11962;50.838;4.430;2023-12-20T02:13:25;7.70;99.90
23568;DHT22;11962;50.838;4.430;2023-12-20T02:15:52;7.70;99.90
23568;DHT22;11962;50.838;4.430;2023-12-20T02:18:17;7.70;99.90
23568;DHT22;11962;50.838;4.430;2023-12-20T02:20:43;7.70;99.90
23568;DHT22;11962;50.838;4.430;2023-12-20T02:23:09;7.70;99.90
23568;DHT22;11962;50.838;4.430;2023-12-20T02:25:34;7.60;99.90
23568;DHT22;11962;50.838;4.430;2023-12-20T02:28:00;7.60;99.90
23568;DHT22;11962;50.838;4.430;2023-12-20T02:30:26;7.50;99.90
23568;DHT22;11962;50.838;4.430;2023-12-20T02:32:51;7.50;99.90
23568;DHT22;11962;50.838;4.430;2023-12-20T02:35:17;7.50;99.90
23568;DHT22;11962;50.838;4.430;2023-12-20T02:37:43;7.50;99.90
23568;DHT22;11962;50.838;4.430;2023-12-20T02:40:09;7.50;99.90
23568;DHT22;11962;50.838;4.430;2023-12-20T02:42:34;7.50;99.90
23568;DHT22;11962;50.838;4.430;2023-12-20T02:45:00;7.50;99.90
23568;DHT22;11962;50.838;4.430;2023-12-20T02:47:25;7.50;99.90
23568;DHT22;11962;50.838;4.430;2023-12-20T02:49:51;7.50;99.90
23568;DHT22;11962;50.838;4.430;2023-12-20T02:52:18;7.50;99.90
23568;DHT22;11962;50.838;4.430;2023-12-20T02:54:43;7.50;99.90
23568;DHT22;11962;50.838;4.430;2023-12-20T02:57:09;7.50;99.90
23568;DHT22;11962;50.838;4.430;2023-12-20T02:59:34;7.60;99.90
23568;DHT22;11962;50.838;4.430;2023-12-20T03:02:00;7.60;99.90
23568;DHT22;11962;50.838;4.430;2023-12-20T03:04:26;7.50;99.90
23568;DHT22;11962;50.838;4.430;2023-12-20T03:06:51;7.50;99.90
23568;DHT22;11962;50.838;4.430;2023-12-20T03:09:17;7.50;99.90
23568;DHT22;11962;50.838;4.430;2023-12-20T03:11:42;7.50;99.90
23568;DHT22;11962;50.838;4.430;2023-12-20T03:14:08;7.60;99.90
23568;DHT22;11962;50.838;4.430;2023-12-20T03:16:33;7.60;99.90
23568;DHT22;11962;50.838;4.430;2023-12-20T03:18:59;7.70;99.90
23568;DHT22;11962;50.838;4.430;2023-12-20T03:21:25;7.70;99.90
23568;DHT22;11962;50.838;4.430;2023-12-20T03:23:50;7.70;99.90
23568;DHT22;11962;50.838;4.430;2023-12-20T03:26:16;7.70;99.90
23568;DHT22;11962;50.838;4.430;2023-12-20T03:28:41;7.80;99.90
23568;DHT22;11962;50.838;4.430;2023-12-20T03:31:07;7.80;99.90
23568;DHT22;11962;50.838;4.430;2023-12-20T03:33:34;7.80;99.90
23568;DHT22;11962;50.838;4.430;2023-12-20T03:36:00;7.80;99.90
23568;DHT22;11962;50.838;4.430;2023-12-20T03:38:25;7.80;99.90
23568;DHT22;11962;50.838;4.430;2023-12-20T03:40:51;7.80;99.90
23568;DHT22;11962;50.838;4.430;2023-12-20T03:43:16;7.80;99.90
23568;DHT22;11962;50.838;4.430;2023-12-20T03:45:42;7.90;99.90
23568;DHT22;11962;50.838;4.430;2023-12-20T03:48:08;7.90;99.90
23568;DHT22;11962;50.838;4.430;2023-12-20T03:50:34;8.00;99.90
23568;DHT22;11962;50.838;4.430;2023-12-20T03:53:00;8.00;99.90
23568;DHT22;11962;50.838;4.430;2023-12-20T03:55:26;8.00;99.90
23568;DHT22;11962;50.838;4.430;2023-12-20T03:57:51;7.90;99.90
23568;DHT22;11962;50.838;4.430;2023-12-20T04:00:17;7.90;99.90
23568;DHT22;11962;50.838;4.430;2023-12-20T04:02:42;7.90;99.90
23568;DHT22;11962;50.838;4.430;2023-12-20T04:05:08;7.90;99.90
23568;DHT22;11962;50.838;4.430;2023-12-20T04:07:34;8.00;99.90
23568;DHT22;11962;50.838;4.430;2023-12-20T04:10:00;8.00;99.90
23568;DHT22;11962;50.838;4.430;2023-12-20T04:12:27;8.10;99.90
23568;DHT22;11962;50.838;4.430;2023-12-20T04:14:52;8.10;99.90
23568;DHT22;11962;50.838;4.430;2023-12-20T04:17:18;8.10;99.90
23568;DHT22;11962;50.838;4.430;2023-12-20T04:19:43;8.20;99.90
23568;DHT22;11962;50.838;4.430;2023-12-20T04:22:09;8.10;99.90
23568;DHT22;11962;50.838;4.430;2023-12-20T04:24:34;8.10;99.90
23568;DHT22;11962;50.838;4.430;2023-12-20T04:27:00;8.10;99.90
23568;DHT22;11962;50.838;4.430;2023-12-20T04:29:26;8.00;99.90
23568;DHT22;11962;50.838;4.430;2023-12-20T04:31:51;8.00;99.90
23568;DHT22;11962;50.838;4.430;2023-12-20T04:34:17;7.90;99.90
23568;DHT22;11962;50.838;4.430;2023-12-20T04:36:43;7.90;99.90
23568;DHT22;11962;50.838;4.430;2023-12-20T04:39:09;7.80;99.90
23568;DHT22;11962;50.838;4.430;2023-12-20T04:41:35;7.80;99.90
23568;DHT22;11962;50.838;4.430;2023-12-20T04:44:00;7.70;99.90
23568;DHT22;11962;50.838;4.430;2023-12-20T04:46:26;7.70;99.90
23568;DHT22;11962;50.838;4.430;2023-12-20T04:48:51;7.70;99.90
23568;DHT22;11962;50.838;4.430;2023-12-20T04:51:17;7.80;99.90
23568;DHT22;11962;50.838;4.430;2023-12-20T04:53:43;7.80;99.90
23568;DHT22;11962;50.838;4.430;2023-12-20T04:56:08;7.90;99.90
23568;DHT22;11962;50.838;4.430;2023-12-20T04:58:34;7.90;99.90
23568;DHT22;11962;50.838;4.430;2023-12-20T05:01:00;8.00;99.90
23568;DHT22;11962;50.838;4.430;2023-12-20T05:03:25;8.10;99.90
23568;DHT22;11962;50.838;4.430;2023-12-20T05:05:51;8.10;99.90
23568;DHT22;11962;50.838;4.430;2023-12-20T05:08:16;8.10;99.90
23568;DHT22;11962;50.838;4.430;2023-12-20T05:10:42;8.10;99.90
23568;DHT22;11962;50.838;4.430;2023-12-20T05:13:07;8.00;99.90
23568;DHT22;11962;50.838;4.430;2023-12-20T05:15:33;8.00;99.90
23568;DHT22;11962;50.838;4.430;2023-12-20T05:17:59;8.00;99.90
23568;DHT22;11962;50.838;4.430;2023-12-20T05:20:24;8.10;99.90
23568;DHT22;11962;50.838;4.430;2023-12-20T05:22:50;8.10;99.90
23568;DHT22;11962;50.838;4.430;2023-12-20T05:25:15;8.00;99.90
23568;DHT22;11962;50.838;4.430;2023-12-20T05:27:41;8.00;99.90
23568;DHT22;11962;50.838;4.430;2023-12-20T05:30:07;7.90;99.90
23568;DHT22;11962;50.838;4.430;2023-12-20T05:32:32;7.80;99.90
23568;DHT22;11962;50.838;4.430;2023-12-20T05:34:58;7.80;99.90
23568;DHT22;11962;50.838;4.430;2023-12-20T05:37:23;7.70;99.90
23568;DHT22;11962;50.838;4.430;2023-12-20T05:39:49;7.70;99.90
23568;DHT22;11962;50.838;4.430;2023-12-20T05:42:15;7.60;99.90
23568;DHT22;11962;50.838;4.430;2023-12-20T05:44:40;7.60;99.90
23568;DHT22;11962;50.838;4.430;2023-12-20T05:47:06;7.60;99.90
23568;DHT22;11962;50.838;4.430;2023-12-20T05:49:31;7.60;99.90
23568;DHT22;11962;50.838;4.430;2023-12-20T05:51:57;7.60;99.90
23568;DHT22;11962;50.838;4.430;2023-12-20T05:54:22;7.50;99.90
23568;DHT22;11962;50.838;4.430;2023-12-20T05:56:48;7.50;99.90
23568;DHT22;11962;50.838;4.430;2023-12-20T05:59:14;7.40;99.90
23568;DHT22;11962;50.838;4.430;2023-12-20T06:01:39;7.40;99.90
23568;DHT22;11962;50.838;4.430;2023-12-20T06:04:05;7.40;99.90
23568;DHT22;11962;50.838;4.430;2023-12-20T06:06:31;7.30;99.90
23568;DHT22;11962;50.838;4.430;2023-12-20T06:08:56;7.40;99.90
23568;DHT22;11962;50.838;4.430;2023-12-20T06:11:22;7.40;99.90
23568;DHT22;11962;50.838;4.430;2023-12-20T06:13:48;7.40;99.90
23568;DHT22;11962;50.838;4.430;2023-12-20T06:16:14;7.30;99.90
23568;DHT22;11962;50.838;4.430;2023-12-20T06:18:40;7.30;99.90
23568;DHT22;11962;50.838;4.430;2023-12-20T06:21:05;7.40;99.90
23568;DHT22;11962;50.838;4.430;2023-12-20T06:23:32;7.40;99.90
23568;DHT22;11962;50.838;4.430;2023-12-20T06:25:58;7.40;99.90
23568;DHT22;11962;50.838;4.430;2023-12-20T06:28:23;7.50;99.90
23568;DHT22;11962;50.838;4.430;2023-12-20T06:30:49;7.60;99.90
23568;DHT22;11962;50.838;4.430;2023-12-20T06:33:15;7.60;99.90
23568;DHT22;11962;50.838;4.430;2023-12-20T06:35:40;7.70;99.90
23568;DHT22;11962;50.838;4.430;2023-12-20T06:38:06;7.70;99.90
23568;DHT22;11962;50.838;4.430;2023-12-20T06:40:32;7.70;99.90
23568;DHT22;11962;50.838;4.430;2023-12-20T06:42:57;7.70;99.90
23568;DHT22;11962;50.838;4.430;2023-12-20T06:45:24;7.80;99.90
23568;DHT22;11962;50.838;4.430;2023-12-20T06:47:50;7.70;99.90
23568;DHT22;11962;50.838;4.430;2023-12-20T06:50:15;7.70;99.90
23568;DHT22;11962;50.838;4.430;2023-12-20T06:52:41;7.70;99.90
23568;DHT22;11962;50.838;4.430;2023-12-20T06:55:07;7.60;99.90
23568;DHT22;11962;50.838;4.430;2023-12-20T06:57:33;7.60;99.90
23568;DHT22;11962;50.838;4.430;2023-12-20T06:59:59;7.50;99.90
23568;DHT22;11962;50.838;4.430;2023-12-20T07:02:25;7.40;99.90
23568;DHT22;11962;50.838;4.430;2023-12-20T07:04:54;7.40;99.90
23568;DHT22;11962;50.838;4.430;2023-12-20T07:07:20;7.30;99.90
23568;DHT22;11962;50.838;4.430;2023-12-20T07:09:45;7.20;99.90
23568;DHT22;11962;50.838;4.430;2023-12-20T07:12:11;7.20;99.90
23568;DHT22;11962;50.838;4.430;2023-12-20T07:14:36;7.20;99.90
23568;DHT22;11962;50.838;4.430;2023-12-20T07:17:02;7.10;99.90
23568;DHT22;11962;50.838;4.430;2023-12-20T07:19:28;7.00;99.90
23568;DHT22;11962;50.838;4.430;2023-12-20T07:21:54;7.20;99.90
23568;DHT22;11962;50.838;4.430;2023-12-20T07:24:20;7.10;99.90
23568;DHT22;11962;50.838;4.430;2023-12-20T07:26:45;7.10;99.90
23568;DHT22;11962;50.838;4.430;2023-12-20T07:29:11;7.10;99.90
23568;DHT22;11962;50.838;4.430;2023-12-20T07:31:36;7.00;99.90
23568;DHT22;11962;50.838;4.430;2023-12-20T07:34:02;7.10;99.90
23568;DHT22;11962;50.838;4.430;2023-12-20T07:36:28;7.10;99.90
23568;DHT22;11962;50.838;4.430;2023-12-20T07:38:53;7.00;99.90
23568;DHT22;11962;50.838;4.430;2023-12-20T07:41:20;7.00;99.90
23568;DHT22;11962;50.838;4.430;2023-12-20T07:43:46;6.90;99.90
23568;DHT22;11962;50.838;4.430;2023-12-20T07:46:12;6.90;99.90
23568;DHT22;11962;50.838;4.430;2023-12-20T07:48:38;6.90;99.90
23568;DHT22;11962;50.838;4.430;2023-12-20T07:51:04;6.80;99.90
23568;DHT22;11962;50.838;4.430;2023-12-20T07:53:31;6.90;99.90
23568;DHT22;11962;50.838;4.430;2023-12-20T07:55:56;6.80;99.90
23568;DHT22;11962;50.838;4.430;2023-12-20T07:58:22;6.80;99.90
23568;DHT22;11962;50.838;4.430;2023-12-20T08:00:48;6.80;99.90
23568;DHT22;11962;50.838;4.430;2023-12-20T08:03:13;6.90;99.90
23568;DHT22;11962;50.838;4.430;2023-12-20T08:05:39;6.90;99.90
23568;DHT22;11962;50.838;4.430;2023-12-20T08:08:07;6.90;99.90
23568;DHT22;11962;50.838;4.430;2023-12-20T08:10:32;6.90;99.90
23568;DHT22;11962;50.838;4.430;2023-12-20T08:12:58;6.90;99.90
23568;DHT22;11962;50.838;4.430;2023-12-20T08:15:24;7.00;99.90
23568;DHT22;11962;50.838;4.430;2023-12-20T08:17:49;7.00;99.90
23568;DHT22;11962;50.838;4.430;2023-12-20T08:20:18;7.00;99.90
23568;DHT22;11962;50.838;4.430;2023-12-20T08:22:44;7.10;99.90
23568;DHT22;11962;50.838;4.430;2023-12-20T08:25:09;7.10;99.90
23568;DHT22;11962;50.838;4.430;2023-12-20T08:27:39;7.10;99.90
23568;DHT22;11962;50.838;4.430;2023-12-20T08:30:05;7.10;99.90
23568;DHT22;11962;50.838;4.430;2023-12-20T08:32:31;7.20;99.90
23568;DHT22;11962;50.838;4.430;2023-12-20T08:34:57;7.30;99.90
23568;DHT22;11962;50.838;4.430;2023-12-20T08:37:23;7.30;99.90
23568;DHT22;11962;50.838;4.430;2023-12-20T08:39:48;7.40;99.90
23568;DHT22;11962;50.838;4.430;2023-12-20T08:42:14;7.50;99.90
23568;DHT22;11962;50.838;4.430;2023-12-20T08:44:40;7.50;99.90
23568;DHT22;11962;50.838;4.430;2023-12-20T08:47:05;7.60;99.90
23568;DHT22;11962;50.838;4.430;2023-12-20T08:49:31;7.70;99.90
23568;DHT22;11962;50.838;4.430;2023-12-20T08:51:57;7.80;99.90
23568;DHT22;11962;50.838;4.430;2023-12-20T08:54:22;7.80;99.90
23568;DHT22;11962;50.838;4.430;2023-12-20T08:56:48;7.80;99.90
23568;DHT22;11962;50.838;4.430;2023-12-20T08:59:13;7.80;99.90
23568;DHT22;11962;50.838;4.430;2023-12-20T09:01:39;7.90;99.90
23568;DHT22;11962;50.838;4.430;2023-12-20T09:04:05;7.90;99.90
23568;DHT22;11962;50.838;4.430;2023-12-20T09:06:31;7.80;99.90
23568;DHT22;11962;50.838;4.430;2023-12-20T09:08:57;7.90;99.90
23568;DHT22;11962;50.838;4.430;2023-12-20T09:11:22;7.90;99.90
23568;DHT22;11962;50.838;4.430;2023-12-20T09:13:48;8.00;99.90
23568;DHT22;11962;50.838;4.430;2023-12-20T09:16:14;8.00;99.90
23568;DHT22;11962;50.838;4.430;2023-12-20T09:18:41;8.00;99.90
23568;DHT22;11962;50.838;4.430;2023-12-20T09:21:07;8.10;99.90
23568;DHT22;11962;50.838;4.430;2023-12-20T09:23:32;8.10;99.90
23568;DHT22;11962;50.838;4.430;2023-12-20T09:25:58;8.10;99.90
23568;DHT22;11962;50.838;4.430;2023-12-20T09:28:23;8.20;99.90
23568;DHT22;11962;50.838;4.430;2023-12-20T09:30:49;8.20;99.90
23568;DHT22;11962;50.838;4.430;2023-12-20T09:33:14;8.20;99.90
23568;DHT22;11962;50.838;4.430;2023-12-20T09:35:41;8.40;99.90
23568;DHT22;11962;50.838;4.430;2023-12-20T09:38:07;8.50;99.90
23568;DHT22;11962;50.838;4.430;2023-12-20T09:40:33;8.60;99.90
23568;DHT22;11962;50.838;4.430;2023-12-20T09:43:03;8.80;99.90
23568;DHT22;11962;50.838;4.430;2023-12-20T09:45:29;9.00;99.90
23568;DHT22;11962;50.838;4.430;2023-12-20T09:47:55;9.60;99.90
23568;DHT22;11962;50.838;4.430;2023-12-20T09:50:22;10.60;99.90
23568;DHT22;11962;50.838;4.430;2023-12-20T09:52:51;11.10;99.90
23568;DHT22;11962;50.838;4.430;2023-12-20T09:55:17;11.70;99.90
23568;DHT22;11962;50.838;4.430;2023-12-20T09:57:43;12.10;99.90
23568;DHT22;11962;50.838;4.430;2023-12-20T10:00:08;12.10;99.90
23568;DHT22;11962;50.838;4.430;2023-12-20T10:02:34;12.00;99.90
23568;DHT22;11962;50.838;4.430;2023-12-20T10:05:01;12.00;99.90
23568;DHT22;11962;50.838;4.430;2023-12-20T10:07:28;11.90;99.90
23568;DHT22;11962;50.838;4.430;2023-12-20T10:09:54;11.70;99.90
23568;DHT22;11962;50.838;4.430;2023-12-20T10:12:21;11.30;99.90
23568;DHT22;11962;50.838;4.430;2023-12-20T10:14:46;11.10;99.90
23568;DHT22;11962;50.838;4.430;2023-12-20T10:17:12;11.00;99.90
23568;DHT22;11962;50.838;4.430;2023-12-20T10:19:38;10.80;99.90
23568;DHT22;11962;50.838;4.430;2023-12-20T10:22:04;10.90;99.90
23568;DHT22;11962;50.838;4.430;2023-12-20T10:24:29;11.80;99.90
23568;DHT22;11962;50.838;4.430;2023-12-20T10:27:04;12.60;99.90
23568;DHT22;11962;50.838;4.430;2023-12-20T10:29:34;12.80;99.90
23568;DHT22;11962;50.838;4.430;2023-12-20T10:32:12;12.60;99.90
23568;DHT22;11962;50.838;4.430;2023-12-20T10:34:46;12.20;99.90
23568;DHT22;11962;50.838;4.430;2023-12-20T10:37:11;11.90;99.90
23568;DHT22;11962;50.838;4.430;2023-12-20T10:39:37;11.60;99.90
23568;DHT22;11962;50.838;4.430;2023-12-20T10:42:04;11.30;99.90
23568;DHT22;11962;50.838;4.430;2023-12-20T10:44:29;11.20;99.90
23568;DHT22;11962;50.838;4.430;2023-12-20T10:46:55;11.10;99.90
23568;DHT22;11962;50.838;4.430;2023-12-20T10:49:24;11.00;99.90
23568;DHT22;11962;50.838;4.430;2023-12-20T10:51:52;11.00;99.90
23568;DHT22;11962;50.838;4.430;2023-12-20T10:54:19;10.90;99.90
23568;DHT22;11962;50.838;4.430;2023-12-20T10:56:45;10.90;99.90
23568;DHT22;11962;50.838;4.430;2023-12-20T10:59:11;10.80;99.90
23568;DHT22;11962;50.838;4.430;2023-12-20T11:01:37;10.70;99.90
23568;DHT22;11962;50.838;4.430;2023-12-20T11:04:03;10.80;99.90
23568;DHT22;11962;50.838;4.430;2023-12-20T11:09:23;10.90;99.90
23568;DHT22;11962;50.838;4.430;2023-12-20T11:14:21;10.80;99.90
23568;DHT22;11962;50.838;4.430;2023-12-20T11:16:48;10.70;99.90
23568;DHT22;11962;50.838;4.430;2023-12-20T11:19:13;10.70;99.90
23568;DHT22;11962;50.838;4.430;2023-12-20T11:21:39;10.80;99.90
23568;DHT22;11962;50.838;4.430;2023-12-20T11:24:05;10.80;99.90
23568;DHT22;11962;50.838;4.430;2023-12-20T11:26:30;10.90;99.90
23568;DHT22;11962;50.838;4.430;2023-12-20T11:29:57;10.90;99.90
23568;DHT22;11962;50.838;4.430;2023-12-20T11:31:51;10.90;99.90
23568;DHT22;11962;50.838;4.430;2023-12-20T11:34:16;11.00;99.90
23568;DHT22;11962;50.838;4.430;2023-12-20T11:36:42;10.90;99.90
23568;DHT22;11962;50.838;4.430;2023-12-20T11:39:08;10.90;99.90
23568;DHT22;11962;50.838;4.430;2023-12-20T11:41:36;11.00;99.90
23568;DHT22;11962;50.838;4.430;2023-12-20T11:44:02;11.00;99.90
23568;DHT22;11962;50.838;4.430;2023-12-20T11:46:29;11.00;99.90
23568;DHT22;11962;50.838;4.430;2023-12-20T11:48:56;11.00;99.90
23568;DHT22;11962;50.838;4.430;2023-12-20T11:51:22;11.00;99.90
23568;DHT22;11962;50.838;4.430;2023-12-20T11:53:51;11.00;99.90
23568;DHT22;11962;50.838;4.430;2023-12-20T11:56:17;11.00;99.90
23568;DHT22;11962;50.838;4.430;2023-12-20T11:58:42;11.00;99.90
23568;DHT22;11962;50.838;4.430;2023-12-20T12:01:08;11.00;99.90
23568;DHT22;11962;50.838;4.430;2023-12-20T12:03:34;11.00;99.90
23568;DHT22;11962;50.838;4.430;2023-12-20T12:05:59;11.00;99.90
23568;DHT22;11962;50.838;4.430;2023-12-20T12:08:26;11.00;99.90
23568;DHT22;11962;50.838;4.430;2023-12-20T12:10:51;11.00;99.90
23568;DHT22;11962;50.838;4.430;2023-12-20T12:13:17;11.10;99.90
23568;DHT22;11962;50.838;4.430;2023-12-20T12:15:43;11.10;99.90
23568;DHT22;11962;50.838;4.430;2023-12-20T12:18:09;11.10;99.90
23568;DHT22;11962;50.838;4.430;2023-12-20T12:20:35;11.00;99.90
23568;DHT22;11962;50.838;4.430;2023-12-20T12:23:02;11.00;99.90
23568;DHT22;11962;50.838;4.430;2023-12-20T12:25:28;11.00;99.90
23568;DHT22;11962;50.838;4.430;2023-12-20T12:27:55;11.00;99.90
23568;DHT22;11962;50.838;4.430;2023-12-20T12:30:20;11.00;99.90
23568;DHT22;11962;50.838;4.430;2023-12-20T12:32:46;11.10;99.90
23568;DHT22;11962;50.838;4.430;2023-12-20T12:35:12;11.10;99.90
23568;DHT22;11962;50.838;4.430;2023-12-20T12:37:38;11.10;99.90
23568;DHT22;11962;50.838;4.430;2023-12-20T12:40:09;11.00;99.90
23568;DHT22;11962;50.838;4.430;2023-12-20T12:42:35;11.10;99.90
23568;DHT22;11962;50.838;4.430;2023-12-20T12:45:21;11.10;99.90
23568;DHT22;11962;50.838;4.430;2023-12-20T12:47:47;11.10;99.90
23568;DHT22;11962;50.838;4.430;2023-12-20T12:50:13;11.10;99.90
23568;DHT22;11962;50.838;4.430;2023-12-20T12:52:39;11.10;99.90
23568;DHT22;11962;50.838;4.430;2023-12-20T12:55:04;11.00;99.90
23568;DHT22;11962;50.838;4.430;2023-12-20T12:57:30;11.10;99.90
23568;DHT22;11962;50.838;4.430;2023-12-20T12:59:56;11.10;99.90
23568;DHT22;11962;50.838;4.430;2023-12-20T13:02:21;11.10;99.90
23568;DHT22;11962;50.838;4.430;2023-12-20T13:04:47;11.20;99.90
23568;DHT22;11962;50.838;4.430;2023-12-20T13:07:13;11.20;99.90
23568;DHT22;11962;50.838;4.430;2023-12-20T13:09:39;11.20;99.90
23568;DHT22;11962;50.838;4.430;2023-12-20T13:12:05;11.30;99.90
23568;DHT22;11962;50.838;4.430;2023-12-20T13:14:32;11.30;99.90
23568;DHT22;11962;50.838;4.430;2023-12-20T13:16:58;11.30;99.90
23568;DHT22;11962;50.838;4.430;2023-12-20T13:19:24;11.30;99.90
23568;DHT22;11962;50.838;4.430;2023-12-20T13:21:49;11.20;99.90
23568;DHT22;11962;50.838;4.430;2023-12-20T13:24:15;11.20;99.90
23568;DHT22;11962;50.838;4.430;2023-12-20T13:26:40;11.20;99.90
23568;DHT22;11962;50.838;4.430;2023-12-20T13:29:06;11.30;99.90
23568;DHT22;11962;50.838;4.430;2023-12-20T13:31:32;11.30;99.90
23568;DHT22;11962;50.838;4.430;2023-12-20T13:33:57;11.40;99.90
23568;DHT22;11962;50.838;4.430;2023-12-20T13:36:23;11.50;99.90
23568;DHT22;11962;50.838;4.430;2023-12-20T13:38:48;11.50;99.90
23568;DHT22;11962;50.838;4.430;2023-12-20T13:41:14;11.50;99.90
23568;DHT22;11962;50.838;4.430;2023-12-20T13:43:40;11.50;99.90
23568;DHT22;11962;50.838;4.430;2023-12-20T13:46:05;11.60;99.90
23568;DHT22;11962;50.838;4.430;2023-12-20T13:48:31;11.60;99.90
23568;DHT22;11962;50.838;4.430;2023-12-20T13:50:56;11.60;99.90
23568;DHT22;11962;50.838;4.430;2023-12-20T13:53:22;11.50;99.90
23568;DHT22;11962;50.838;4.430;2023-12-20T13:55:47;11.50;99.90
23568;DHT22;11962;50.838;4.430;2023-12-20T13:58:13;11.50;99.90
23568;DHT22;11962;50.838;4.430;2023-12-20T14:00:39;11.40;99.90
23568;DHT22;11962;50.838;4.430;2023-12-20T14:03:05;11.40;99.90
23568;DHT22;11962;50.838;4.430;2023-12-20T14:05:31;11.40;99.90
23568;DHT22;11962;50.838;4.430;2023-12-20T14:07:56;11.40;99.90
23568;DHT22;11962;50.838;4.430;2023-12-20T14:10:25;11.40;99.90
23568;DHT22;11962;50.838;4.430;2023-12-20T14:12:54;11.40;99.90
23568;DHT22;11962;50.838;4.430;2023-12-20T14:15:20;11.50;99.90
23568;DHT22;11962;50.838;4.430;2023-12-20T14:17:46;11.50;99.90
23568;DHT22;11962;50.838;4.430;2023-12-20T14:20:11;11.40;99.90
23568;DHT22;11962;50.838;4.430;2023-12-20T14:22:40;11.40;99.90
23568;DHT22;11962;50.838;4.430;2023-12-20T14:25:12;11.50;99.90
23568;DHT22;11962;50.838;4.430;2023-12-20T14:27:39;11.50;99.90
23568;DHT22;11962;50.838;4.430;2023-12-20T14:30:04;11.50;99.90
23568;DHT22;11962;50.838;4.430;2023-12-20T14:32:31;11.50;99.90
23568;DHT22;11962;50.838;4.430;2023-12-20T14:34:56;11.40;99.90
23568;DHT22;11962;50.838;4.430;2023-12-20T14:37:22;11.40;99.90
23568;DHT22;11962;50.838;4.430;2023-12-20T14:39:47;11.40;99.90
23568;DHT22;11962;50.838;4.430;2023-12-20T14:42:13;11.40;99.90
23568;DHT22;11962;50.838;4.430;2023-12-20T14:44:39;11.50;99.90
23568;DHT22;11962;50.838;4.430;2023-12-20T14:47:06;11.50;99.90
23568;DHT22;11962;50.838;4.430;2023-12-20T14:49:31;11.60;99.90
23568;DHT22;11962;50.838;4.430;2023-12-20T14:51:57;11.60;99.90
23568;DHT22;11962;50.838;4.430;2023-12-20T14:54:23;11.60;99.90
23568;DHT22;11962;50.838;4.430;2023-12-20T14:56:49;11.60;99.90
23568;DHT22;11962;50.838;4.430;2023-12-20T14:59:15;11.60;99.90
23568;DHT22;11962;50.838;4.430;2023-12-20T15:01:40;11.50;99.90
23568;DHT22;11962;50.838;4.430;2023-12-20T15:04:06;11.50;99.90
23568;DHT22;11962;50.838;4.430;2023-12-20T15:06:32;11.60;99.90
23568;DHT22;11962;50.838;4.430;2023-12-20T15:08:59;11.60;99.90
23568;DHT22;11962;50.838;4.430;2023-12-20T15:11:25;11.50;99.90
23568;DHT22;11962;50.838;4.430;2023-12-20T15:13:51;11.60;99.90
23568;DHT22;11962;50.838;4.430;2023-12-20T15:16:24;11.60;99.90
23568;DHT22;11962;50.838;4.430;2023-12-20T15:18:51;11.60;99.90
23568;DHT22;11962;50.838;4.430;2023-12-20T15:21:17;11.60;99.90
23568;DHT22;11962;50.838;4.430;2023-12-20T15:23:42;11.50;99.90
23568;DHT22;11962;50.838;4.430;2023-12-20T15:26:33;11.50;99.90
23568;DHT22;11962;50.838;4.430;2023-12-20T15:28:59;11.40;99.90
23568;DHT22;11962;50.838;4.430;2023-12-20T15:31:26;11.50;99.90
23568;DHT22;11962;50.838;4.430;2023-12-20T15:33:52;11.50;99.90
23568;DHT22;11962;50.838;4.430;2023-12-20T15:36:18;11.50;99.90
23568;DHT22;11962;50.838;4.430;2023-12-20T15:38:44;11.50;99.90